Time;durP1;ratioP1;P1;durP2;ratioP2;P2;SDS_P1;SDS_P2;PMS_P1;PMS_P2;Temp;Humidity;BMP_temperature;BMP_pressure;BME280_temperature;BME280_humidity;BME280_pressure;Samples;Min_cycle;Max_cycle;Signal;HPM_P1;HPM_P2
2022/07/24 00:01:59;;;;;;;11.33;10.23;;;17.90;99.90;;;;;;5050702;28;20175;-60
2022/07/24 00:04:25;;;;;;;10.17;9.33;;;17.90;99.90;;;;;;5050781;28;20178;-62
2022/07/24 00:06:51;;;;;;;9.93;9.13;;;17.90;99.90;;;;;;5050952;28;20206;-63
2022/07/24 00:09:16;;;;;;;10.00;9.23;;;17.80;99.90;;;;;;5050815;28;20171;-63
2022/07/24 00:11:42;;;;;;;11.07;9.57;;;17.80;99.90;;;;;;5050778;28;20270;-63
2022/07/24 00:14:08;;;;;;;10.47;9.50;;;17.80;99.90;;;;;;5050969;28;20221;-63
2022/07/24 00:16:33;;;;;;;10.23;9.33;;;17.80;99.90;;;;;;5050833;28;20197;-63
2022/07/24 00:18:59;;;;;;;10.27;9.23;;;17.70;99.90;;;;;;5050872;28;20709;-61
2022/07/24 00:21:24;;;;;;;10.23;9.33;;;17.80;99.90;;;;;;5050524;28;20281;-62
2022/07/24 00:23:50;;;;;;;10.37;9.47;;;17.80;99.90;;;;;;5050793;28;20632;-62
2022/07/24 00:26:16;;;;;;;10.53;9.47;;;17.80;99.90;;;;;;5050870;28;20210;-63
2022/07/24 00:28:41;;;;;;;9.57;8.70;;;17.70;99.90;;;;;;5050478;28;20656;-62
2022/07/24 00:31:07;;;;;;;10.43;9.43;;;17.70;99.90;;;;;;5050595;28;20200;-61
2022/07/24 00:33:33;;;;;;;10.40;9.47;;;17.70;99.90;;;;;;5051475;28;20213;-63
2022/07/24 00:35:58;;;;;;;15.00;10.27;;;17.60;99.90;;;;;;5054674;28;20182;-62
2022/07/24 00:38:24;;;;;;;10.97;10.00;;;17.60;99.90;;;;;;5054095;28;20273;-61
2022/07/24 00:40:49;;;;;;;10.00;9.17;;;17.60;99.90;;;;;;5054372;28;20581;-62
2022/07/24 00:43:16;;;;;;;10.13;9.33;;;17.60;99.90;;;;;;5053855;28;20183;-61
2022/07/24 00:45:43;;;;;;;11.73;10.47;;;17.60;99.90;;;;;;5054151;28;20683;-62
2022/07/24 00:48:09;;;;;;;11.73;10.73;;;17.50;99.90;;;;;;5053834;28;20275;-62
2022/07/24 00:50:36;;;;;;;11.60;10.60;;;17.50;99.90;;;;;;5054218;28;20198;-62
2022/07/24 00:53:02;;;;;;;10.87;9.77;;;17.50;99.90;;;;;;5054005;28;20183;-63
2022/07/24 00:55:28;;;;;;;10.40;9.50;;;17.40;99.90;;;;;;5054491;28;20636;-61
2022/07/24 00:57:54;;;;;;;11.20;10.17;;;17.40;99.90;;;;;;5053996;28;20203;-62
2022/07/24 01:00:21;;;;;;;11.33;10.23;;;17.40;99.90;;;;;;5053835;28;20276;-62
2022/07/24 01:02:48;;;;;;;11.10;10.00;;;17.40;99.90;;;;;;5053907;28;20179;-62
2022/07/24 01:05:14;;;;;;;10.77;9.87;;;17.40;99.90;;;;;;5053474;28;20170;-62
2022/07/24 01:07:40;;;;;;;11.43;10.43;;;17.40;99.90;;;;;;5053498;28;20210;-62
2022/07/24 01:10:06;;;;;;;12.43;11.20;;;17.30;99.90;;;;;;5054016;28;20205;-62
2022/07/24 01:12:34;;;;;;;11.70;10.13;;;17.30;99.90;;;;;;5053807;28;20202;-62
2022/07/24 01:14:59;;;;;;;10.97;9.77;;;17.30;99.90;;;;;;5053345;28;20182;-62
2022/07/24 01:17:33;;;;;;;10.53;9.50;;;17.30;99.90;;;;;;5053303;28;20656;-63
2022/07/24 01:20:00;;;;;;;13.70;10.60;;;17.30;99.90;;;;;;5053680;28;20277;-62
2022/07/24 01:22:26;;;;;;;11.37;10.13;;;17.30;99.90;;;;;;5053398;28;20186;-62
2022/07/24 01:24:53;;;;;;;11.43;10.43;;;17.30;99.90;;;;;;5052753;28;20224;-61
2022/07/24 01:27:19;;;;;;;11.43;10.43;;;17.30;99.90;;;;;;5053302;28;20241;-62
2022/07/24 01:29:45;;;;;;;10.63;9.70;;;17.30;99.90;;;;;;5053177;28;20198;-61
2022/07/24 01:32:11;;;;;;;12.00;10.53;;;17.30;99.90;;;;;;5053404;28;20547;-63
2022/07/24 01:34:36;;;;;;;12.30;10.77;;;17.30;99.90;;;;;;5052913;28;20183;-62
2022/07/24 01:37:02;;;;;;;11.90;10.87;;;17.30;99.90;;;;;;5053237;28;20183;-62
2022/07/24 01:39:28;;;;;;;11.73;10.63;;;17.30;99.90;;;;;;5052960;28;20545;-63
2022/07/24 01:41:53;;;;;;;11.93;10.87;;;17.30;99.90;;;;;;5053373;28;20178;-62
2022/07/24 01:44:19;;;;;;;12.03;10.93;;;17.20;99.90;;;;;;5052509;28;20179;-62
2022/07/24 01:46:45;;;;;;;14.63;10.50;;;17.30;99.90;;;;;;5052918;28;20571;-62
2022/07/24 01:49:11;;;;;;;13.73;10.60;;;17.20;99.90;;;;;;5053006;28;20182;-62
2022/07/24 01:51:37;;;;;;;11.67;10.67;;;17.20;99.90;;;;;;5052980;28;20234;-62
2022/07/24 01:54:03;;;;;;;13.07;11.67;;;17.20;99.90;;;;;;5052820;28;20182;-62
2022/07/24 01:56:30;;;;;;;11.83;10.63;;;17.10;99.90;;;;;;5052698;28;20265;-62
2022/07/24 01:58:56;;;;;;;12.23;11.03;;;17.10;99.90;;;;;;5053026;28;20647;-62
2022/07/24 02:01:21;;;;;;;12.47;11.27;;;17.10;99.90;;;;;;5052437;28;20344;-62
2022/07/24 02:03:48;;;;;;;13.63;12.13;;;17.00;99.90;;;;;;5052674;28;20179;-62
2022/07/24 02:06:14;;;;;;;13.03;11.83;;;17.00;99.90;;;;;;5052542;28;20677;-62
2022/07/24 02:08:40;;;;;;;12.40;11.37;;;17.00;99.90;;;;;;5052915;28;20167;-63
2022/07/24 02:11:05;;;;;;;12.93;11.73;;;17.00;99.90;;;;;;5052522;28;20207;-62
2022/07/24 02:13:31;;;;;;;12.90;11.60;;;17.00;99.90;;;;;;5052421;28;20179;-62
2022/07/24 02:15:57;;;;;;;12.23;11.03;;;17.10;99.90;;;;;;5052303;28;20266;-62
2022/07/24 02:18:22;;;;;;;12.47;11.23;;;17.10;99.90;;;;;;5052803;28;20181;-62
2022/07/24 02:20:48;;;;;;;13.00;11.70;;;17.20;99.90;;;;;;5052389;28;20233;-61
2022/07/24 02:23:17;;;;;;;13.03;11.73;;;17.20;99.90;;;;;;5052447;28;20229;-68
2022/07/24 02:25:44;;;;;;;11.53;10.30;;;17.20;99.90;;;;;;5052775;28;20201;-65
2022/07/24 02:28:10;;;;;;;12.40;11.20;;;17.20;99.90;;;;;;5053288;28;20178;-69
2022/07/24 02:30:35;;;;;;;12.20;10.43;;;17.20;99.90;;;;;;5053110;28;20245;-69
2022/07/24 02:33:01;;;;;;;17.63;11.87;;;17.30;99.90;;;;;;5053131;28;20171;-67
2022/07/24 02:35:26;;;;;;;17.57;12.27;;;17.20;99.90;;;;;;5052573;28;20170;-66
2022/07/24 02:37:52;;;;;;;13.33;11.53;;;17.20;99.90;;;;;;5053208;28;20190;-67
2022/07/24 02:40:18;;;;;;;13.57;12.17;;;17.20;99.90;;;;;;5053534;28;20725;-67
2022/07/24 02:42:44;;;;;;;13.03;11.73;;;17.20;99.90;;;;;;5053103;28;20179;-67
2022/07/24 02:45:10;;;;;;;12.30;11.20;;;17.20;99.90;;;;;;5052275;28;20175;-66
2022/07/24 02:47:45;;;;;;;14.57;11.43;;;17.20;99.90;;;;;;5051850;28;20210;-67
2022/07/24 02:50:11;;;;;;;12.57;11.37;;;17.10;99.90;;;;;;5052970;28;20201;-67
2022/07/24 02:52:36;;;;;;;12.77;10.97;;;17.10;99.90;;;;;;5053264;28;20190;-67
2022/07/24 02:55:02;;;;;;;13.23;11.90;;;17.10;99.90;;;;;;5052229;28;20197;-66
2022/07/24 02:57:27;;;;;;;14.63;11.20;;;17.10;99.90;;;;;;5052002;28;20186;-66
2022/07/24 02:59:53;;;;;;;12.03;10.93;;;17.10;99.90;;;;;;5052833;28;20227;-66
2022/07/24 03:02:19;;;;;;;14.03;11.63;;;17.10;99.90;;;;;;5052444;28;20636;-67
2022/07/24 03:04:44;;;;;;;15.57;12.83;;;17.10;99.90;;;;;;5052244;28;20191;-66
2022/07/24 03:07:11;;;;;;;13.13;11.83;;;17.00;99.90;;;;;;5051267;28;20258;-66
2022/07/24 03:09:37;;;;;;;13.40;12.13;;;17.00;99.90;;;;;;5052454;28;20185;-66
2022/07/24 03:12:02;;;;;;;13.43;12.07;;;17.00;99.90;;;;;;5052572;28;20606;-68
2022/07/24 03:14:28;;;;;;;13.97;12.30;;;17.00;99.90;;;;;;5052104;28;20231;-67
2022/07/24 03:16:54;;;;;;;15.87;12.23;;;17.00;99.90;;;;;;5052558;28;20529;-66
2022/07/24 03:19:19;;;;;;;14.17;12.77;;;17.00;99.90;;;;;;5052303;28;20268;-66
2022/07/24 03:21:45;;;;;;;14.00;12.43;;;17.00;99.90;;;;;;5052278;28;20564;-69
2022/07/24 03:24:10;;;;;;;13.90;12.50;;;17.00;99.90;;;;;;5051958;28;20191;-65
2022/07/24 03:26:36;;;;;;;14.03;12.53;;;16.90;99.90;;;;;;5052367;28;20565;-67
2022/07/24 03:29:02;;;;;;;13.30;12.07;;;16.90;99.90;;;;;;5051940;28;20261;-68
2022/07/24 03:31:27;;;;;;;14.60;13.00;;;16.90;99.90;;;;;;5051991;28;20191;-69
2022/07/24 03:33:53;;;;;;;20.60;12.97;;;16.90;99.90;;;;;;5051919;28;20178;-67
2022/07/24 03:36:18;;;;;;;13.67;12.27;;;16.90;99.90;;;;;;5052457;28;20706;-68
2022/07/24 03:38:44;;;;;;;17.60;13.30;;;16.90;99.90;;;;;;5050666;28;20256;-67
2022/07/24 03:41:09;;;;;;;13.70;12.33;;;16.90;99.90;;;;;;5051741;28;20221;-69
2022/07/24 03:43:35;;;;;;;13.60;12.33;;;16.90;99.90;;;;;;5050777;28;20732;-66
2022/07/24 03:46:00;;;;;;;15.00;13.50;;;16.90;99.90;;;;;;5052337;28;20202;-66
2022/07/24 03:48:26;;;;;;;14.30;12.97;;;16.90;99.90;;;;;;5051431;28;20179;-63
2022/07/24 03:50:52;;;;;;;14.43;12.97;;;16.90;99.90;;;;;;5051278;28;20205;-63
2022/07/24 03:53:17;;;;;;;16.07;13.67;;;16.90;99.90;;;;;;5051250;28;20171;-63
2022/07/24 03:55:43;;;;;;;16.97;15.07;;;16.90;99.90;;;;;;5050976;28;20182;-64
2022/07/24 03:58:08;;;;;;;16.70;15.07;;;16.90;99.90;;;;;;5051143;28;20178;-63
2022/07/24 04:00:34;;;;;;;15.67;14.27;;;16.90;99.90;;;;;;5050406;28;20203;-63
2022/07/24 04:03:00;;;;;;;15.40;13.87;;;16.90;99.90;;;;;;5051226;28;20224;-63
2022/07/24 04:05:25;;;;;;;14.27;12.73;;;16.90;99.90;;;;;;5050370;28;20269;-62
2022/07/24 04:07:51;;;;;;;14.40;13.00;;;16.90;99.90;;;;;;5052919;28;20544;-63
2022/07/24 04:10:16;;;;;;;15.50;13.90;;;16.90;99.90;;;;;;5054805;28;20190;-63
2022/07/24 04:12:42;;;;;;;14.27;12.83;;;16.90;99.90;;;;;;5055016;28;20170;-63
2022/07/24 04:15:08;;;;;;;13.33;12.10;;;16.90;99.90;;;;;;5054378;28;20171;-62
2022/07/24 04:17:38;;;;;;;14.60;12.90;;;17.00;99.90;;;;;;5055137;28;20179;-63
2022/07/24 04:20:04;;;;;;;14.47;13.03;;;17.00;99.90;;;;;;5054876;28;20555;-63
2022/07/24 04:22:29;;;;;;;14.97;13.33;;;17.10;99.90;;;;;;5054884;28;20179;-63
2022/07/24 04:24:55;;;;;;;18.10;15.03;;;17.10;99.90;;;;;;5054301;28;20178;-63
2022/07/24 04:27:20;;;;;;;15.17;13.67;;;17.10;99.90;;;;;;5054473;28;20234;-63
2022/07/24 04:29:46;;;;;;;14.00;12.63;;;17.20;99.90;;;;;;5054493;28;20596;-63
2022/07/24 04:32:11;;;;;;;14.40;13.00;;;17.20;99.90;;;;;;5054633;28;20178;-63
2022/07/24 04:34:37;;;;;;;13.47;12.07;;;17.20;99.90;;;;;;5054076;28;20618;-63
2022/07/24 04:37:03;;;;;;;13.23;11.93;;;17.20;99.90;;;;;;5054626;28;20167;-63
2022/07/24 04:39:28;;;;;;;12.87;11.60;;;17.30;99.90;;;;;;5053966;28;20214;-63
2022/07/24 04:41:54;;;;;;;14.50;13.03;;;17.40;99.90;;;;;;5079763;22;20582;-67
2022/07/24 04:44:19;;;;;;;15.17;12.97;;;17.40;99.90;;;;;;5054199;28;20177;-67
2022/07/24 04:46:45;;;;;;;14.27;12.07;;;17.50;99.90;;;;;;5054556;28;20329;-67
2022/07/24 04:49:11;;;;;;;13.70;12.30;;;17.60;99.90;;;;;;5054699;28;20206;-67
2022/07/24 04:51:36;;;;;;;15.60;13.37;;;17.60;99.90;;;;;;5054164;28;20201;-67
2022/07/24 04:54:02;;;;;;;14.60;13.03;;;17.70;99.90;;;;;;5053992;28;20221;-67
2022/07/24 04:56:31;;;;;;;13.63;11.93;;;17.80;99.90;;;;;;5053408;28;20221;-67
2022/07/24 04:58:57;;;;;;;15.23;13.93;;;17.90;99.90;;;;;;5054430;28;20224;-67
2022/07/24 05:01:22;;;;;;;12.90;11.73;;;18.00;99.90;;;;;;5037412;28;20207;-67
2022/07/24 05:03:48;;;;;;;14.07;12.67;;;18.10;99.90;;;;;;5037347;28;20583;-67
2022/07/24 05:06:13;;;;;;;12.47;11.17;;;18.20;99.90;;;;;;5053948;28;20213;-67
2022/07/24 05:08:39;;;;;;;15.20;11.33;;;18.30;99.90;;;;;;5051032;28;20174;-67
2022/07/24 05:11:05;;;;;;;14.17;11.70;;;18.40;99.90;;;;;;5032724;28;20214;-67
2022/07/24 05:13:30;;;;;;;14.00;11.67;;;18.50;99.90;;;;;;5032906;28;20637;-67
2022/07/24 05:15:56;;;;;;;12.47;11.17;;;18.60;99.90;;;;;;5053328;28;20179;-67
2022/07/24 05:18:21;;;;;;;12.93;11.63;;;18.80;99.90;;;;;;5038377;28;20183;-67
2022/07/24 05:20:56;;;;;;;12.47;11.27;;;18.80;99.90;;;;;;5033417;28;20491;-67
2022/07/24 05:23:22;;;;;;;15.97;11.07;;;18.90;99.90;;;;;;5047803;28;20605;-67
2022/07/24 05:25:47;;;;;;;13.00;10.87;;;19.00;99.90;;;;;;5053639;28;20289;-67
2022/07/24 05:28:13;;;;;;;12.23;10.93;;;19.10;99.90;;;;;;5040896;28;20202;-67
2022/07/24 05:30:39;;;;;;;11.53;9.60;;;19.00;99.90;;;;;;5044130;28;20687;-67
2022/07/24 05:33:04;;;;;;;11.67;10.57;;;19.00;99.90;;;;;;5053613;28;20175;-65
2022/07/24 05:35:30;;;;;;;11.30;10.30;;;19.00;99.90;;;;;;5044216;28;20187;-68
2022/07/24 05:37:55;;;;;;;11.77;10.67;;;19.00;99.90;;;;;;5033636;28;20254;-68
2022/07/24 05:40:21;;;;;;;14.43;11.60;;;19.00;99.90;;;;;;5040135;28;20206;-66
2022/07/24 05:42:47;;;;;;;14.60;11.87;;;19.10;99.90;;;;;;5053528;28;20175;-66
2022/07/24 05:45:12;;;;;;;11.80;10.57;;;19.10;99.90;;;;;;5047519;28;20175;-65
2022/07/24 05:47:41;;;;;;;11.13;10.07;;;19.40;99.90;;;;;;5033321;28;20196;-66
2022/07/24 05:50:11;;;;;;;11.13;10.13;;;19.50;99.90;;;;;;5043079;28;20265;-67
2022/07/24 05:52:37;;;;;;;11.93;10.73;;;19.70;99.90;;;;;;5053418;28;20159;-66
2022/07/24 05:55:04;;;;;;;11.33;10.20;;;20.00;99.90;;;;;;5042509;28;20171;-65
2022/07/24 05:57:29;;;;;;;11.93;10.80;;;20.20;99.90;;;;;;5032871;28;20206;-65
2022/07/24 05:59:55;;;;;;;13.10;11.80;;;20.30;99.90;;;;;;5040309;28;20218;-66
2022/07/24 06:02:20;;;;;;;11.53;10.53;;;20.50;99.90;;;;;;5052970;28;20644;-67
2022/07/24 06:04:46;;;;;;;10.77;9.77;;;20.80;99.90;;;;;;5046254;28;20692;-66
2022/07/24 06:07:12;;;;;;;12.13;11.13;;;21.10;99.90;;;;;;5040683;28;20584;-65
2022/07/24 06:09:38;;;;;;;12.17;11.17;;;21.40;99.90;;;;;;5044048;28;20182;-65
2022/07/24 06:12:04;;;;;;;10.90;9.87;;;21.70;99.90;;;;;;5050493;28;20202;-66
2022/07/24 06:14:30;;;;;;;13.83;12.60;;;22.00;99.90;;;;;;5047608;28;20258;-67
2022/07/24 06:16:56;;;;;;;9.70;8.77;;;22.50;99.90;;;;;;5032963;28;20183;-65
2022/07/24 06:19:22;;;;;;;9.52;8.73;;;22.90;99.90;;;;;;5032765;28;20579;-65
2022/07/24 06:21:47;;;;;;;10.13;9.18;;;23.40;99.90;;;;;;5053045;28;20289;-66
2022/07/24 06:24:13;;;;;;;9.60;8.65;;;23.70;99.90;;;;;;5052060;28;20170;-65
2022/07/24 06:26:38;;;;;;;8.85;8.05;;;24.00;99.90;;;;;;5033299;28;20249;-66
2022/07/24 06:29:04;;;;;;;8.75;7.72;;;24.30;99.90;;;;;;5031430;28;20233;-66
2022/07/24 06:31:30;;;;;;;8.63;7.82;;;24.60;99.90;;;;;;5043757;28;20731;-66
2022/07/24 06:33:55;;;;;;;7.85;7.25;;;25.10;99.90;;;;;;5032311;28;20235;-65
2022/07/24 06:36:21;;;;;;;8.82;7.10;;;25.70;99.90;;;;;;5032336;28;20476;-66
2022/07/24 06:38:47;;;;;;;8.68;7.80;;;26.20;99.90;;;;;;5048013;28;20636;-67
2022/07/24 06:41:13;;;;;;;12.20;8.10;;;26.60;99.90;;;;;;5051858;28;20701;-68
2022/07/24 06:43:39;;;;;;;8.45;7.55;;;27.00;99.90;;;;;;5033608;28;20221;-67
2022/07/24 06:46:05;;;;;;;7.63;6.82;;;27.40;99.90;;;;;;5032182;28;20226;-67
2022/07/24 06:48:31;;;;;;;7.68;6.57;;;27.70;99.90;;;;;;5045915;28;20193;-67
2022/07/24 06:50:57;;;;;;;7.68;6.97;;;27.90;99.90;;;;;;5052022;28;20236;-67
2022/07/24 06:53:22;;;;;;;7.32;6.60;;;28.40;99.90;;;;;;5039034;28;20179;-67
2022/07/24 06:55:48;;;;;;;7.05;6.45;;;28.80;99.90;;;;;;5032196;28;20178;-66
2022/07/24 06:58:14;;;;;;;7.97;6.90;;;29.20;99.90;;;;;;5040609;28;20224;-66
2022/07/24 07:00:40;;;;;;;8.02;6.47;;;29.50;99.90;;;;;;5052343;28;20198;-67
2022/07/24 07:03:05;;;;;;;7.50;6.70;;;29.40;99.90;;;;;;5038057;28;20206;-67
2022/07/24 07:05:31;;;;;;;7.40;6.70;;;29.40;99.90;;;;;;5031332;28;20226;-67
2022/07/24 07:07:57;;;;;;;7.28;6.57;;;29.30;99.90;;;;;;5042255;28;20640;-67
2022/07/24 07:10:23;;;;;;;7.70;7.00;;;29.10;99.90;;;;;;5051737;28;20692;-67
2022/07/24 07:12:49;;;;;;;7.35;6.65;;;29.00;99.90;;;;;;5041521;28;20190;-67
2022/07/24 07:15:15;;;;;;;6.80;6.20;;;29.10;99.90;;;;;;5031792;28;20175;-67
2022/07/24 07:17:41;;;;;;;6.93;5.68;;;29.10;99.90;;;;;;5038657;28;20576;-67
2022/07/24 07:20:09;;;;;;;7.22;6.45;;;29.50;99.90;;;;;;5051723;28;20202;-67
2022/07/24 07:22:35;;;;;;;7.40;6.70;;;29.80;99.90;;;;;;5045660;28;20260;-67
2022/07/24 07:25:01;;;;;;;6.97;6.30;;;30.00;99.90;;;;;;5031581;28;20199;-67
2022/07/24 07:27:27;;;;;;;7.47;6.70;;;30.10;99.90;;;;;;5031779;28;20205;-66
2022/07/24 07:29:52;;;;;;;8.38;6.78;;;30.30;99.90;;;;;;5033289;28;20171;-66
2022/07/24 07:32:18;;;;;;;7.30;6.63;;;30.40;99.90;;;;;;5049618;28;20182;-67
2022/07/24 07:34:44;;;;;;;6.53;6.00;;;30.40;99.90;;;;;;5051130;28;20171;-66
2022/07/24 07:37:09;;;;;;;7.25;5.90;;;30.40;99.90;;;;;;5049114;28;20171;-67
2022/07/24 07:39:35;;;;;;;6.53;5.82;;;30.40;99.90;;;;;;5029912;28;20180;-66
2022/07/24 07:42:00;;;;;;;7.07;6.35;;;30.70;99.90;;;;;;5032882;28;20599;-67
2022/07/24 07:44:26;;;;;;;8.05;6.00;;;31.10;99.90;;;;;;5056435;28;20228;-67
2022/07/24 07:46:52;;;;;;;6.10;5.60;;;31.20;99.90;;;;;;5056900;28;20232;-67
2022/07/24 07:49:18;;;;;;;6.72;6.07;;;31.60;99.90;;;;;;5040065;28;20532;-67
2022/07/24 07:51:47;;;;;;;6.47;5.78;;;32.00;99.90;;;;;;5036673;28;20191;-67
2022/07/24 07:54:14;;;;;;;5.90;5.30;;;32.20;99.90;;;;;;5053303;28;20177;-67
2022/07/24 07:56:40;;;;;;;7.75;5.55;;;32.40;99.90;;;;;;5058014;28;20171;-67
2022/07/24 07:59:06;;;;;;;5.72;5.13;;;32.60;99.90;;;;;;5042172;28;20531;-67
2022/07/24 08:01:31;;;;;;;7.70;5.85;;;33.00;99.90;;;;;;5037690;28;20206;-66
2022/07/24 08:03:57;;;;;;;6.40;5.90;;;33.10;99.90;;;;;;5051168;28;20182;-67
2022/07/24 08:06:23;;;;;;;8.18;5.68;;;33.40;99.90;;;;;;5056979;28;20202;-66
2022/07/24 08:08:48;;;;;;;6.38;5.75;;;33.60;99.90;;;;;;5057885;28;20205;-67
2022/07/24 08:11:14;;;;;;;5.85;5.35;;;33.70;99.90;;;;;;5061067;28;20258;-66
2022/07/24 08:13:40;;;;;;;8.25;5.43;;;33.80;99.90;;;;;;5050033;28;20186;-66
2022/07/24 08:16:06;;;;;;;5.75;5.25;;;33.80;99.90;;;;;;5038613;28;20202;-67
2022/07/24 08:18:31;;;;;;;6.20;5.70;;;34.00;99.90;;;;;;5041413;28;20830;-67
2022/07/24 08:20:57;;;;;;;6.15;5.60;;;33.70;99.90;;;;;;5040284;28;20191;-67
2022/07/24 08:23:22;;;;;;;6.22;5.15;;;33.90;99.90;;;;;;5041339;28;20186;-67
2022/07/24 08:25:48;;;;;;;5.60;5.10;;;34.10;99.90;;;;;;5040220;28;20176;-67
2022/07/24 08:28:14;;;;;;;5.65;5.15;;;34.10;99.90;;;;;;5042158;28;20190;-67
2022/07/24 08:30:39;;;;;;;5.68;5.05;;;34.10;99.90;;;;;;5045893;28;20230;-67
2022/07/24 08:33:05;;;;;;;6.03;5.43;;;34.10;99.90;;;;;;5037492;28;20553;-67
2022/07/24 08:35:30;;;;;;;7.88;5.80;;;34.40;99.90;;;;;;5037393;28;20174;-67
2022/07/24 08:37:56;;;;;;;6.65;5.30;;;34.70;99.90;;;;;;5038084;28;20632;-67
2022/07/24 08:40:22;;;;;;;6.20;5.60;;;34.70;99.90;;;;;;5057320;28;20699;-67
2022/07/24 08:42:48;;;;;;;6.25;5.35;;;34.50;99.90;;;;;;5057562;28;20214;-67
2022/07/24 08:45:13;;;;;;;7.65;5.50;;;34.60;99.90;;;;;;5038225;28;20218;-66
2022/07/24 08:47:41;;;;;;;5.65;5.15;;;34.70;99.90;;;;;;5057415;28;20206;-66
2022/07/24 08:50:07;;;;;;;5.50;5.05;;;35.00;99.90;;;;;;5057337;28;20186;-66
2022/07/24 08:52:35;;;;;;;5.63;4.95;;;35.30;99.90;;;;;;5041665;28;20179;-66
2022/07/24 08:55:01;;;;;;;5.72;5.20;;;35.60;99.90;;;;;;5033289;28;20169;-67
2022/07/24 08:57:27;;;;;;;8.40;4.97;;;36.00;99.90;;;;;;5048845;28;20187;-66
2022/07/24 08:59:52;;;;;;;6.40;4.88;;;36.60;99.90;;;;;;5053022;28;20181;-67
2022/07/24 09:02:18;;;;;;;5.28;4.78;;;36.80;99.90;;;;;;5035413;28;20648;-67
2022/07/24 09:04:49;;;;;;;5.65;5.07;;;36.60;99.90;;;;;;5035039;28;20195;-67
2022/07/24 09:07:16;;;;;;;6.15;4.60;;;36.70;99.90;;;;;;5034125;28;20731;-66
2022/07/24 09:09:43;;;;;;;5.50;4.95;;;36.70;99.90;;;;;;5050253;28;20182;-66
2022/07/24 09:12:16;;;;;;;5.15;4.65;;;37.00;99.80;;;;;;5054102;28;20171;-67
2022/07/24 09:14:46;;;;;;;6.30;5.28;;;36.90;98.40;;;;;;5037537;28;20171;-67
2022/07/24 09:17:16;;;;;;;5.32;4.82;;;36.90;97.70;;;;;;5034804;28;20181;-68
2022/07/24 09:19:57;;;;;;;5.43;4.93;;;36.80;98.70;;;;;;5048623;28;20747;-67
2022/07/24 09:22:37;;;;;;;5.93;5.43;;;36.70;97.80;;;;;;5054317;28;20185;-66
2022/07/24 09:25:03;;;;;;;7.25;5.22;;;36.60;97.90;;;;;;5052085;28;20180;-66
2022/07/24 09:27:29;;;;;;;5.90;5.30;;;36.60;97.20;;;;;;5052272;28;20214;-67
2022/07/24 09:29:54;;;;;;;7.20;5.13;;;36.40;98.10;;;;;;5037477;28;20723;-67
2022/07/24 09:32:24;;;;;;;5.88;5.25;;;36.40;98.70;;;;;;5033624;28;20233;-66
2022/07/24 09:34:52;;;;;;;5.57;4.85;;;36.50;97.00;;;;;;5034463;28;20168;-66
2022/07/24 09:37:19;;;;;;;6.05;5.00;;;36.60;96.30;;;;;;5033533;28;20171;-66
2022/07/24 09:39:44;;;;;;;7.32;5.10;;;36.40;97.40;;;;;;5045472;28;20232;-67
2022/07/24 09:42:11;;;;;;;5.70;5.18;;;36.50;98.10;;;;;;5053518;28;20179;-67
2022/07/24 09:44:38;;;;;;;4.95;4.45;;;36.90;96.80;;;;;;5051487;28;20214;-66
2022/07/24 09:47:06;;;;;;;6.10;5.50;;;37.30;96.20;;;;;;5051380;28;20198;-67
2022/07/24 09:49:33;;;;;;;15.00;5.10;;;37.70;95.20;;;;;;5047887;28;20597;-67
2022/07/24 09:52:07;;;;;;;5.13;4.72;;;37.80;94.60;;;;;;5033301;28;20191;-67
2022/07/24 09:54:35;;;;;;;4.95;4.45;;;37.90;96.50;;;;;;5040783;28;20717;-66
2022/07/24 09:57:17;;;;;;;5.40;4.90;;;38.00;94.80;;;;;;5053116;28;20227;-67
2022/07/24 09:59:48;;;;;;;5.00;4.30;;;37.70;93.40;;;;;;5033670;28;20606;-67
2022/07/24 10:02:16;;;;;;;7.18;5.60;;;37.30;95.80;;;;;;5033998;28;20183;-68
2022/07/24 10:04:44;;;;;;;5.25;4.75;;;36.80;94.00;;;;;;5051943;28;20574;-67
2022/07/24 10:07:11;;;;;;;5.97;5.05;;;36.50;93.40;;;;;;5052774;28;20692;-67
2022/07/24 10:09:41;;;;;;;5.55;5.03;;;36.40;93.60;;;;;;5032895;28;20233;-67
2022/07/24 10:12:12;;;;;;;5.43;4.78;;;36.30;94.50;;;;;;5032857;28;20321;-67
2022/07/24 10:14:40;;;;;;;6.22;5.63;;;36.20;93.10;;;;;;5051330;28;20790;-67
2022/07/24 10:17:08;;;;;;;5.88;5.38;;;36.40;93.70;;;;;;5052747;28;20187;-67
2022/07/24 10:19:44;;;;;;;5.30;4.80;;;36.50;94.80;;;;;;5034236;28;20176;-67
2022/07/24 10:22:17;;;;;;;6.65;4.75;;;36.40;93.10;;;;;;5044993;28;20171;-67
2022/07/24 10:25:04;;;;;;;5.25;4.75;;;36.30;95.90;;;;;;5052205;28;20186;-67
2022/07/24 10:27:34;;;;;;;5.60;4.22;;;36.40;94.10;;;;;;5036858;28;20218;-67
2022/07/24 10:30:04;;;;;;;5.78;5.20;;;36.70;94.20;;;;;;5032435;28;20525;-67
2022/07/24 10:32:32;;;;;;;5.43;4.70;;;37.00;92.30;;;;;;5042932;28;20536;-67
2022/07/24 10:35:17;;;;;;;4.15;3.80;;;37.20;93.10;;;;;;5033128;28;20671;-67
2022/07/24 10:38:11;;;;;;;6.25;4.85;;;37.50;92.70;;;;;;5032269;28;20182;-67
2022/07/24 10:40:44;;;;;;;4.97;4.47;;;37.40;91.70;;;;;;5032788;28;20207;-68
2022/07/24 10:43:15;;;;;;;7.68;4.82;;;37.50;91.70;;;;;;5050565;28;20183;-68
2022/07/24 10:45:47;;;;;;;5.22;4.72;;;37.40;90.40;;;;;;5051667;28;20171;-66
2022/07/24 10:48:22;;;;;;;5.00;4.60;;;37.10;90.80;;;;;;5050190;28;20182;-66
2022/07/24 10:51:05;;;;;;;5.25;4.75;;;36.70;93.40;;;;;;5052137;28;20607;-67
2022/07/24 10:53:37;;;;;;;6.03;5.50;;;36.50;91.40;;;;;;5031732;28;20195;-67
2022/07/24 10:56:27;;;;;;;5.00;4.20;;;36.50;91.10;;;;;;5032115;28;20469;-67
2022/07/24 10:59:10;;;;;;;5.13;4.63;;;36.70;92.10;;;;;;5031817;28;20225;-67
2022/07/24 11:01:47;;;;;;;6.07;4.80;;;36.80;92.10;;;;;;5031846;28;20218;-66
2022/07/24 11:04:18;;;;;;;5.30;4.80;;;36.90;91.50;;;;;;5031439;28;20175;-68
2022/07/24 11:06:50;;;;;;;5.25;4.88;;;36.90;90.90;;;;;;5032980;28;20203;-66
2022/07/24 11:09:18;;;;;;;10.68;4.90;;;36.70;90.10;;;;;;5030529;28;20524;-67
2022/07/24 11:11:53;;;;;;;5.72;5.13;;;36.50;91.30;;;;;;5048256;28;20265;-66
2022/07/24 11:14:46;;;;;;;5.88;5.38;;;36.40;90.50;;;;;;5042258;28;20280;-67
2022/07/24 11:17:43;;;;;;;5.13;4.63;;;36.40;90.00;;;;;;5030533;28;20179;-66
2022/07/24 11:20:11;;;;;;;6.30;4.70;;;36.30;89.90;;;;;;5030090;28;20265;-67
2022/07/24 11:22:49;;;;;;;5.53;4.85;;;36.40;90.00;;;;;;5031637;28;20183;-68
2022/07/24 11:25:25;;;;;;;5.07;4.65;;;36.50;91.60;;;;;;5045644;28;20269;-67
2022/07/24 11:28:06;;;;;;;7.28;5.03;;;36.80;91.20;;;;;;5051329;28;20629;-67
2022/07/24 11:30:32;;;;;;;5.28;4.78;;;37.10;90.40;;;;;;5034579;28;20630;-67
2022/07/24 11:32:58;;;;;;;5.25;4.75;;;37.40;90.80;;;;;;5031345;28;20186;-67
2022/07/24 11:35:35;;;;;;;4.40;4.10;;;37.90;90.80;;;;;;5045433;28;20240;-67
2022/07/24 11:38:03;;;;;;;6.75;4.43;;;37.80;90.30;;;;;;5051364;28;20228;-67
2022/07/24 11:40:29;;;;;;;4.80;4.13;;;37.80;86.00;;;;;;5036046;28;20211;-67
2022/07/24 11:43:01;;;;;;;7.57;4.88;;;38.00;90.30;;;;;;5031655;28;20171;-68
2022/07/24 11:45:27;;;;;;;5.22;4.75;;;38.00;87.90;;;;;;5044018;28;20191;-66
2022/07/24 11:47:56;;;;;;;5.03;4.63;;;37.90;85.90;;;;;;5051012;28;20706;-67
2022/07/24 11:50:23;;;;;;;5.43;4.72;;;37.60;88.20;;;;;;5038304;28;20245;-67
2022/07/24 11:52:49;;;;;;;6.63;4.53;;;37.60;88.40;;;;;;5030477;28;20266;-66
2022/07/24 11:55:19;;;;;;;5.15;4.65;;;37.80;89.70;;;;;;5031212;28;20183;-67
2022/07/24 11:57:50;;;;;;;5.95;5.07;;;37.90;85.60;;;;;;5031164;28;20240;-67
2022/07/24 12:00:21;;;;;;;4.80;4.40;;;37.90;86.10;;;;;;5040886;28;20207;-67
2022/07/24 12:02:49;;;;;;;5.55;4.85;;;37.80;89.10;;;;;;5051185;28;20171;-67
2022/07/24 12:05:30;;;;;;;7.78;4.72;;;37.70;88.80;;;;;;5040912;28;20184;-67
2022/07/24 12:07:58;;;;;;;4.65;4.10;;;37.90;89.80;;;;;;5030830;28;20199;-68
2022/07/24 12:10:24;;;;;;;5.13;4.22;;;38.00;90.40;;;;;;5041029;28;20214;-68
2022/07/24 12:12:53;;;;;;;5.15;4.68;;;38.00;90.00;;;;;;5049669;28;20221;-67
2022/07/24 12:15:20;;;;;;;4.85;4.45;;;37.80;86.80;;;;;;5041927;28;20175;-66
2022/07/24 12:18:06;;;;;;;4.68;4.38;;;37.90;87.20;;;;;;5030989;28;20585;-65
2022/07/24 12:20:33;;;;;;;5.43;4.47;;;37.90;86.20;;;;;;5040395;28;20209;-65
2022/07/24 12:23:01;;;;;;;6.43;5.25;;;37.40;88.40;;;;;;5050799;28;20255;-65
2022/07/24 12:25:28;;;;;;;5.18;4.60;;;37.50;88.70;;;;;;5040454;28;20226;-66
2022/07/24 12:28:21;;;;;;;6.07;4.30;;;37.90;90.90;;;;;;5031065;28;20199;-65
2022/07/24 12:30:53;;;;;;;4.90;4.50;;;38.00;92.40;;;;;;5035901;28;20199;-66
2022/07/24 12:33:22;;;;;;;4.90;4.50;;;38.40;90.90;;;;;;5035805;28;20175;-66
2022/07/24 12:36:01;;;;;;;4.72;4.30;;;38.80;88.50;;;;;;5043879;28;20179;-66
2022/07/24 12:38:29;;;;;;;6.50;4.88;;;38.90;85.80;;;;;;5054236;28;20206;-67
2022/07/24 12:41:09;;;;;;;4.63;4.22;;;38.90;86.00;;;;;;5044066;28;20211;-65